sensor_id;sensor_type;location;lat;lon;timestamp;P1;durP1;ratioP1;P2;durP2;ratioP2
78057;SDS011;67265;52.514;13.292;2023-03-24T00:02:08;3.72;;;2.28;;
78057;SDS011;67265;52.514;13.292;2023-03-24T00:04:35;3.97;;;2.28;;
78057;SDS011;67265;52.514;13.292;2023-03-24T00:07:04;4.32;;;2.80;;
78057;SDS011;67265;52.514;13.292;2023-03-24T00:09:31;3.58;;;1.90;;
78057;SDS011;67265;52.514;13.292;2023-03-24T00:11:57;3.58;;;2.22;;
78057;SDS011;67265;52.514;13.292;2023-03-24T00:14:24;3.40;;;2.00;;
78057;SDS011;67265;52.514;13.292;2023-03-24T00:16:51;4.60;;;2.33;;
78057;SDS011;67265;52.514;13.292;2023-03-24T00:19:19;3.97;;;1.98;;
78057;SDS011;67265;52.514;13.292;2023-03-24T00:21:47;3.25;;;2.13;;
78057;SDS011;67265;52.514;13.292;2023-03-24T00:24:14;3.83;;;2.13;;
78057;SDS011;67265;52.514;13.292;2023-03-24T00:26:40;4.40;;;1.83;;
78057;SDS011;67265;52.514;13.292;2023-03-24T00:31:32;3.28;;;1.98;;
78057;SDS011;67265;52.514;13.292;2023-03-24T00:34:01;3.50;;;2.22;;
78057;SDS011;67265;52.514;13.292;2023-03-24T00:36:28;2.65;;;2.15;;
78057;SDS011;67265;52.514;13.292;2023-03-24T00:38:55;3.58;;;2.30;;
78057;SDS011;67265;52.514;13.292;2023-03-24T00:41:22;3.33;;;2.25;;
78057;SDS011;67265;52.514;13.292;2023-03-24T00:43:53;2.90;;;1.88;;
78057;SDS011;67265;52.514;13.292;2023-03-24T00:46:21;3.38;;;2.17;;
78057;SDS011;67265;52.514;13.292;2023-03-24T00:49:05;3.47;;;1.90;;
78057;SDS011;67265;52.514;13.292;2023-03-24T00:51:33;3.85;;;2.50;;
78057;SDS011;67265;52.514;13.292;2023-03-24T00:54:02;5.45;;;2.58;;
78057;SDS011;67265;52.514;13.292;2023-03-24T00:56:30;3.45;;;2.05;;
78057;SDS011;67265;52.514;13.292;2023-03-24T00:58:58;3.55;;;1.92;;
78057;SDS011;67265;52.514;13.292;2023-03-24T01:01:29;3.78;;;2.05;;
78057;SDS011;67265;52.514;13.292;2023-03-24T01:03:58;3.60;;;2.30;;
78057;SDS011;67265;52.514;13.292;2023-03-24T01:06:25;2.58;;;1.85;;
78057;SDS011;67265;52.514;13.292;2023-03-24T01:08:52;2.88;;;1.90;;
78057;SDS011;67265;52.514;13.292;2023-03-24T01:11:23;3.83;;;1.80;;
78057;SDS011;67265;52.514;13.292;2023-03-24T01:13:53;2.05;;;1.45;;
78057;SDS011;67265;52.514;13.292;2023-03-24T01:16:20;5.20;;;1.98;;
78057;SDS011;67265;52.514;13.292;2023-03-24T01:18:50;3.80;;;2.45;;
78057;SDS011;67265;52.514;13.292;2023-03-24T01:21:17;3.35;;;2.17;;
78057;SDS011;67265;52.514;13.292;2023-03-24T01:23:44;2.28;;;1.70;;
78057;SDS011;67265;52.514;13.292;2023-03-24T01:26:11;2.65;;;1.80;;
78057;SDS011;67265;52.514;13.292;2023-03-24T01:28:38;3.08;;;2.13;;
78057;SDS011;67265;52.514;13.292;2023-03-24T01:31:09;2.75;;;2.30;;
78057;SDS011;67265;52.514;13.292;2023-03-24T01:33:36;3.03;;;1.73;;
78057;SDS011;67265;52.514;13.292;2023-03-24T01:36:04;4.53;;;1.80;;
78057;SDS011;67265;52.514;13.292;2023-03-24T01:38:31;2.30;;;1.70;;
78057;SDS011;67265;52.514;13.292;2023-03-24T01:40:58;3.13;;;1.55;;
78057;SDS011;67265;52.514;13.292;2023-03-24T01:43:26;2.28;;;1.70;;
78057;SDS011;67265;52.514;13.292;2023-03-24T01:46:18;2.83;;;2.00;;
78057;SDS011;67265;52.514;13.292;2023-03-24T01:51:30;2.35;;;1.75;;
78057;SDS011;67265;52.514;13.292;2023-03-24T01:54:07;2.10;;;1.90;;
78057;SDS011;67265;52.514;13.292;2023-03-24T01:56:37;2.38;;;1.92;;
78057;SDS011;67265;52.514;13.292;2023-03-24T01:59:10;2.42;;;2.20;;
78057;SDS011;67265;52.514;13.292;2023-03-24T02:01:39;2.65;;;1.95;;
78057;SDS011;67265;52.514;13.292;2023-03-24T02:04:06;2.90;;;1.95;;
78057;SDS011;67265;52.514;13.292;2023-03-24T02:06:34;2.95;;;1.50;;
78057;SDS011;67265;52.514;13.292;2023-03-24T02:09:06;2.30;;;2.05;;
78057;SDS011;67265;52.514;13.292;2023-03-24T02:11:34;2.92;;;1.90;;
78057;SDS011;67265;52.514;13.292;2023-03-24T02:14:02;3.72;;;2.03;;
78057;SDS011;67265;52.514;13.292;2023-03-24T02:43:45;2.22;;;1.60;;
78057;SDS011;67265;52.514;13.292;2023-03-24T03:26:34;3.67;;;2.25;;
78057;SDS011;67265;52.514;13.292;2023-03-24T03:29:07;5.13;;;2.25;;
78057;SDS011;67265;52.514;13.292;2023-03-24T03:47:45;5.55;;;2.88;;
78057;SDS011;67265;52.514;13.292;2023-03-24T04:32:13;4.47;;;3.35;;
78057;SDS011;67265;52.514;13.292;2023-03-24T05:11:44;4.50;;;2.65;;
78057;SDS011;67265;52.514;13.292;2023-03-24T05:58:02;5.03;;;2.97;;
78057;SDS011;67265;52.514;13.292;2023-03-24T06:00:29;4.75;;;2.80;;
78057;SDS011;67265;52.514;13.292;2023-03-24T06:19:40;4.05;;;2.88;;
78057;SDS011;67265;52.514;13.292;2023-03-24T06:22:17;4.75;;;2.45;;
78057;SDS011;67265;52.514;13.292;2023-03-24T06:27:26;5.45;;;2.95;;
78057;SDS011;67265;52.514;13.292;2023-03-24T06:29:58;6.57;;;2.50;;
78057;SDS011;67265;52.514;13.292;2023-03-24T06:32:25;5.18;;;2.92;;
78057;SDS011;67265;52.514;13.292;2023-03-24T06:34:52;3.63;;;2.50;;
78057;SDS011;67265;52.514;13.292;2023-03-24T06:37:21;3.28;;;2.30;;
78057;SDS011;67265;52.514;13.292;2023-03-24T06:42:35;5.60;;;2.40;;
78057;SDS011;67265;52.514;13.292;2023-03-24T06:45:02;4.32;;;2.58;;
78057;SDS011;67265;52.514;13.292;2023-03-24T06:52:53;4.80;;;2.83;;
78057;SDS011;67265;52.514;13.292;2023-03-24T06:55:20;3.95;;;2.05;;
78057;SDS011;67265;52.514;13.292;2023-03-24T06:57:47;6.57;;;3.35;;
78057;SDS011;67265;52.514;13.292;2023-03-24T07:00:14;4.75;;;2.78;;
78057;SDS011;67265;52.514;13.292;2023-03-24T07:05:09;3.55;;;2.88;;
78057;SDS011;67265;52.514;13.292;2023-03-24T07:07:36;3.33;;;2.40;;
78057;SDS011;67265;52.514;13.292;2023-03-24T07:10:23;4.78;;;3.42;;
78057;SDS011;67265;52.514;13.292;2023-03-24T07:12:49;4.68;;;2.50;;
78057;SDS011;67265;52.514;13.292;2023-03-24T07:15:18;4.70;;;2.38;;
78057;SDS011;67265;52.514;13.292;2023-03-24T07:17:44;3.42;;;2.53;;
78057;SDS011;67265;52.514;13.292;2023-03-24T07:20:11;4.22;;;2.80;;
78057;SDS011;67265;52.514;13.292;2023-03-24T07:22:38;3.45;;;2.55;;
78057;SDS011;67265;52.514;13.292;2023-03-24T07:25:04;3.60;;;2.28;;
78057;SDS011;67265;52.514;13.292;2023-03-24T07:27:31;4.50;;;2.30;;
78057;SDS011;67265;52.514;13.292;2023-03-24T07:30:00;2.65;;;1.65;;
78057;SDS011;67265;52.514;13.292;2023-03-24T07:32:30;3.83;;;1.83;;
78057;SDS011;67265;52.514;13.292;2023-03-24T07:35:00;3.78;;;2.40;;
78057;SDS011;67265;52.514;13.292;2023-03-24T07:37:28;4.18;;;2.50;;
78057;SDS011;67265;52.514;13.292;2023-03-24T07:39:54;3.08;;;2.10;;
78057;SDS011;67265;52.514;13.292;2023-03-24T07:42:21;4.82;;;2.80;;
78057;SDS011;67265;52.514;13.292;2023-03-24T07:44:47;4.00;;;2.20;;
78057;SDS011;67265;52.514;13.292;2023-03-24T07:47:14;3.03;;;2.15;;
78057;SDS011;67265;52.514;13.292;2023-03-24T07:49:40;3.67;;;2.42;;
78057;SDS011;67265;52.514;13.292;2023-03-24T07:52:07;4.07;;;2.28;;
78057;SDS011;67265;52.514;13.292;2023-03-24T07:54:33;3.28;;;2.30;;
78057;SDS011;67265;52.514;13.292;2023-03-24T07:57:00;3.72;;;2.55;;
78057;SDS011;67265;52.514;13.292;2023-03-24T07:59:28;2.85;;;2.38;;
78057;SDS011;67265;52.514;13.292;2023-03-24T08:01:55;4.00;;;2.00;;
78057;SDS011;67265;52.514;13.292;2023-03-24T08:04:34;2.28;;;2.00;;
78057;SDS011;67265;52.514;13.292;2023-03-24T08:12:16;4.57;;;2.33;;
78057;SDS011;67265;52.514;13.292;2023-03-24T08:15:07;3.70;;;2.05;;
78057;SDS011;67265;52.514;13.292;2023-03-24T08:17:43;3.70;;;2.53;;
78057;SDS011;67265;52.514;13.292;2023-03-24T08:28:16;3.30;;;2.20;;
78057;SDS011;67265;52.514;13.292;2023-03-24T08:33:09;4.30;;;2.47;;
78057;SDS011;67265;52.514;13.292;2023-03-24T08:35:41;3.78;;;2.40;;
78057;SDS011;67265;52.514;13.292;2023-03-24T08:43:04;3.75;;;2.70;;
78057;SDS011;67265;52.514;13.292;2023-03-24T08:45:36;5.10;;;2.90;;
78057;SDS011;67265;52.514;13.292;2023-03-24T08:48:04;5.72;;;2.40;;
78057;SDS011;67265;52.514;13.292;2023-03-24T08:50:33;3.33;;;2.30;;
78057;SDS011;67265;52.514;13.292;2023-03-24T08:53:01;5.53;;;2.53;;
78057;SDS011;67265;52.514;13.292;2023-03-24T08:55:29;5.35;;;2.20;;
78057;SDS011;67265;52.514;13.292;2023-03-24T08:57:56;6.20;;;2.45;;
78057;SDS011;67265;52.514;13.292;2023-03-24T09:00:22;3.63;;;3.33;;
78057;SDS011;67265;52.514;13.292;2023-03-24T09:02:50;3.05;;;2.30;;
78057;SDS011;67265;52.514;13.292;2023-03-24T09:05:20;6.30;;;2.55;;
78057;SDS011;67265;52.514;13.292;2023-03-24T09:08:06;3.88;;;2.42;;
78057;SDS011;67265;52.514;13.292;2023-03-24T09:10:33;4.22;;;2.55;;
78057;SDS011;67265;52.514;13.292;2023-03-24T09:13:00;4.00;;;2.17;;
78057;SDS011;67265;52.514;13.292;2023-03-24T09:15:26;4.28;;;2.60;;
78057;SDS011;67265;52.514;13.292;2023-03-24T09:17:53;2.70;;;1.52;;
78057;SDS011;67265;52.514;13.292;2023-03-24T09:20:20;3.63;;;1.92;;
78057;SDS011;67265;52.514;13.292;2023-03-24T09:22:46;3.63;;;2.53;;
78057;SDS011;67265;52.514;13.292;2023-03-24T09:25:14;3.83;;;2.08;;
78057;SDS011;67265;52.514;13.292;2023-03-24T09:27:43;6.43;;;2.50;;
78057;SDS011;67265;52.514;13.292;2023-03-24T09:30:09;2.75;;;1.77;;
78057;SDS011;67265;52.514;13.292;2023-03-24T09:32:37;3.63;;;2.20;;
78057;SDS011;67265;52.514;13.292;2023-03-24T09:35:04;3.15;;;1.92;;
78057;SDS011;67265;52.514;13.292;2023-03-24T09:37:31;2.83;;;1.90;;
78057;SDS011;67265;52.514;13.292;2023-03-24T09:39:58;3.15;;;2.13;;
78057;SDS011;67265;52.514;13.292;2023-03-24T09:42:27;3.17;;;1.90;;
78057;SDS011;67265;52.514;13.292;2023-03-24T09:44:56;3.45;;;1.73;;
78057;SDS011;67265;52.514;13.292;2023-03-24T09:49:56;3.17;;;2.00;;
78057;SDS011;67265;52.514;13.292;2023-03-24T09:52:35;4.40;;;2.10;;
78057;SDS011;67265;52.514;13.292;2023-03-24T09:55:07;3.83;;;1.95;;
78057;SDS011;67265;52.514;13.292;2023-03-24T09:57:39;3.05;;;2.22;;
78057;SDS011;67265;52.514;13.292;2023-03-24T10:00:22;3.67;;;2.10;;
78057;SDS011;67265;52.514;13.292;2023-03-24T10:02:56;2.40;;;1.50;;
78057;SDS011;67265;52.514;13.292;2023-03-24T10:05:35;2.30;;;1.63;;
78057;SDS011;67265;52.514;13.292;2023-03-24T10:08:12;2.80;;;1.80;;
78057;SDS011;67265;52.514;13.292;2023-03-24T10:11:47;2.90;;;1.67;;
78057;SDS011;67265;52.514;13.292;2023-03-24T10:19:42;1.98;;;1.30;;
78057;SDS011;67265;52.514;13.292;2023-03-24T10:25:05;3.25;;;1.40;;
78057;SDS011;67265;52.514;13.292;2023-03-24T10:30:21;3.22;;;1.42;;
78057;SDS011;67265;52.514;13.292;2023-03-24T10:32:51;2.58;;;1.60;;
78057;SDS011;67265;52.514;13.292;2023-03-24T10:35:21;2.80;;;1.30;;
78057;SDS011;67265;52.514;13.292;2023-03-24T10:37:50;2.28;;;1.30;;
78057;SDS011;67265;52.514;13.292;2023-03-24T10:40:18;3.05;;;1.60;;
78057;SDS011;67265;52.514;13.292;2023-03-24T10:42:47;4.20;;;1.40;;
78057;SDS011;67265;52.514;13.292;2023-03-24T10:45:32;2.83;;;1.50;;
78057;SDS011;67265;52.514;13.292;2023-03-24T10:48:00;5.25;;;2.30;;
78057;SDS011;67265;52.514;13.292;2023-03-24T10:50:28;2.47;;;1.67;;
78057;SDS011;67265;52.514;13.292;2023-03-24T10:52:56;2.67;;;1.50;;
78057;SDS011;67265;52.514;13.292;2023-03-24T10:55:26;2.67;;;1.67;;
78057;SDS011;67265;52.514;13.292;2023-03-24T10:57:57;2.50;;;1.88;;
78057;SDS011;67265;52.514;13.292;2023-03-24T11:02:55;2.72;;;1.80;;
78057;SDS011;67265;52.514;13.292;2023-03-24T11:05:26;2.50;;;1.60;;
78057;SDS011;67265;52.514;13.292;2023-03-24T11:07:57;3.47;;;1.52;;
78057;SDS011;67265;52.514;13.292;2023-03-24T11:10:36;2.40;;;1.50;;
78057;SDS011;67265;52.514;13.292;2023-03-24T11:13:03;3.00;;;1.70;;
78057;SDS011;67265;52.514;13.292;2023-03-24T11:15:31;2.45;;;2.00;;
78057;SDS011;67265;52.514;13.292;2023-03-24T11:25:46;3.15;;;1.40;;
78057;SDS011;67265;52.514;13.292;2023-03-24T11:33:28;1.98;;;1.25;;
78057;SDS011;67265;52.514;13.292;2023-03-24T11:36:04;2.95;;;1.50;;
78057;SDS011;67265;52.514;13.292;2023-03-24T11:38:39;2.15;;;1.58;;
78057;SDS011;67265;52.514;13.292;2023-03-24T11:41:09;1.48;;;1.30;;
78057;SDS011;67265;52.514;13.292;2023-03-24T11:43:45;1.80;;;1.50;;
78057;SDS011;67265;52.514;13.292;2023-03-24T11:46:12;1.70;;;1.33;;
78057;SDS011;67265;52.514;13.292;2023-03-24T11:51:33;2.20;;;1.35;;
78057;SDS011;67265;52.514;13.292;2023-03-24T11:54:06;2.65;;;1.33;;
78057;SDS011;67265;52.514;13.292;2023-03-24T11:59:23;4.68;;;1.63;;
78057;SDS011;67265;52.514;13.292;2023-03-24T12:09:57;3.03;;;1.92;;
78057;SDS011;67265;52.514;13.292;2023-03-24T12:16:09;2.50;;;1.52;;
78057;SDS011;67265;52.514;13.292;2023-03-24T12:18:56;2.08;;;1.70;;
78057;SDS011;67265;52.514;13.292;2023-03-24T12:21:58;2.50;;;1.75;;
78057;SDS011;67265;52.514;13.292;2023-03-24T12:35:47;2.20;;;1.95;;
78057;SDS011;67265;52.514;13.292;2023-03-24T13:03:43;2.10;;;1.52;;
78057;SDS011;67265;52.514;13.292;2023-03-24T13:06:25;3.60;;;1.35;;
78057;SDS011;67265;52.514;13.292;2023-03-24T15:02:17;2.10;;;1.27;;
78057;SDS011;67265;52.514;13.292;2023-03-24T15:07:41;3.15;;;1.00;;
78057;SDS011;67265;52.514;13.292;2023-03-24T15:10:13;2.65;;;1.30;;
78057;SDS011;67265;52.514;13.292;2023-03-24T15:15:46;3.25;;;0.85;;
78057;SDS011;67265;52.514;13.292;2023-03-24T15:18:15;2.45;;;1.15;;
78057;SDS011;67265;52.514;13.292;2023-03-24T15:20:45;3.45;;;1.35;;
78057;SDS011;67265;52.514;13.292;2023-03-24T15:23:15;2.33;;;1.20;;
78057;SDS011;67265;52.514;13.292;2023-03-24T15:25:43;1.83;;;0.90;;
78057;SDS011;67265;52.514;13.292;2023-03-24T15:28:28;3.67;;;0.95;;
78057;SDS011;67265;52.514;13.292;2023-03-24T15:30:56;5.50;;;1.60;;
78057;SDS011;67265;52.514;13.292;2023-03-24T15:33:26;3.13;;;0.95;;
78057;SDS011;67265;52.514;13.292;2023-03-24T15:35:57;2.75;;;0.80;;
78057;SDS011;67265;52.514;13.292;2023-03-24T15:38:29;2.42;;;0.98;;
78057;SDS011;67265;52.514;13.292;2023-03-24T15:43:23;3.05;;;0.68;;
78057;SDS011;67265;52.514;13.292;2023-03-24T15:45:52;1.30;;;0.75;;
78057;SDS011;67265;52.514;13.292;2023-03-24T15:48:34;2.95;;;0.63;;
78057;SDS011;67265;52.514;13.292;2023-03-24T15:51:03;6.32;;;1.15;;
78057;SDS011;67265;52.514;13.292;2023-03-24T15:56:03;2.55;;;0.73;;
78057;SDS011;67265;52.514;13.292;2023-03-24T15:58:53;4.45;;;1.27;;
78057;SDS011;67265;52.514;13.292;2023-03-24T16:01:27;2.97;;;1.00;;
78057;SDS011;67265;52.514;13.292;2023-03-24T16:04:16;2.85;;;1.02;;
78057;SDS011;67265;52.514;13.292;2023-03-24T16:06:52;2.00;;;0.80;;
78057;SDS011;67265;52.514;13.292;2023-03-24T16:09:20;4.40;;;0.93;;
78057;SDS011;67265;52.514;13.292;2023-03-24T16:11:47;3.35;;;1.25;;
78057;SDS011;67265;52.514;13.292;2023-03-24T16:14:24;3.47;;;1.05;;
78057;SDS011;67265;52.514;13.292;2023-03-24T16:16:53;3.83;;;1.33;;
78057;SDS011;67265;52.514;13.292;2023-03-24T16:19:24;2.90;;;1.38;;
78057;SDS011;67265;52.514;13.292;2023-03-24T16:21:50;2.75;;;1.05;;
78057;SDS011;67265;52.514;13.292;2023-03-24T16:24:17;1.95;;;1.20;;
78057;SDS011;67265;52.514;13.292;2023-03-24T16:26:43;4.97;;;1.60;;
78057;SDS011;67265;52.514;13.292;2023-03-24T16:31:41;4.57;;;1.77;;
78057;SDS011;67265;52.514;13.292;2023-03-24T16:34:09;3.63;;;1.30;;
78057;SDS011;67265;52.514;13.292;2023-03-24T16:36:35;4.68;;;1.40;;
78057;SDS011;67265;52.514;13.292;2023-03-24T16:39:02;2.85;;;1.23;;
78057;SDS011;67265;52.514;13.292;2023-03-24T16:41:36;3.22;;;1.38;;
78057;SDS011;67265;52.514;13.292;2023-03-24T16:44:03;2.58;;;1.17;;
78057;SDS011;67265;52.514;13.292;2023-03-24T16:46:30;4.85;;;1.75;;
78057;SDS011;67265;52.514;13.292;2023-03-24T16:48:57;5.32;;;1.33;;
78057;SDS011;67265;52.514;13.292;2023-03-24T16:51:24;4.07;;;1.63;;
78057;SDS011;67265;52.514;13.292;2023-03-24T16:53:52;2.10;;;1.23;;
78057;SDS011;67265;52.514;13.292;2023-03-24T16:56:19;2.55;;;1.42;;
78057;SDS011;67265;52.514;13.292;2023-03-24T16:58:46;4.18;;;1.23;;
78057;SDS011;67265;52.514;13.292;2023-03-24T17:01:18;4.43;;;1.20;;
78057;SDS011;67265;52.514;13.292;2023-03-24T17:03:55;4.07;;;2.08;;
78057;SDS011;67265;52.514;13.292;2023-03-24T17:06:24;3.00;;;1.00;;
78057;SDS011;67265;52.514;13.292;2023-03-24T17:08:52;2.78;;;1.83;;
78057;SDS011;67265;52.514;13.292;2023-03-24T17:11:19;2.13;;;1.42;;
78057;SDS011;67265;52.514;13.292;2023-03-24T17:13:51;4.63;;;1.15;;
78057;SDS011;67265;52.514;13.292;2023-03-24T17:16:19;1.85;;;1.20;;
78057;SDS011;67265;52.514;13.292;2023-03-24T17:18:46;4.53;;;1.60;;
78057;SDS011;67265;52.514;13.292;2023-03-24T17:21:12;3.05;;;1.30;;
78057;SDS011;67265;52.514;13.292;2023-03-24T17:23:42;2.95;;;1.95;;
78057;SDS011;67265;52.514;13.292;2023-03-24T17:26:09;3.85;;;1.48;;
78057;SDS011;67265;52.514;13.292;2023-03-24T17:28:35;6.57;;;1.48;;
78057;SDS011;67265;52.514;13.292;2023-03-24T17:31:02;5.75;;;1.50;;
78057;SDS011;67265;52.514;13.292;2023-03-24T17:33:29;3.63;;;1.63;;
78057;SDS011;67265;52.514;13.292;2023-03-24T17:35:56;3.75;;;2.08;;
78057;SDS011;67265;52.514;13.292;2023-03-24T17:38:22;3.25;;;1.55;;
78057;SDS011;67265;52.514;13.292;2023-03-24T17:40:57;4.35;;;1.80;;
78057;SDS011;67265;52.514;13.292;2023-03-24T17:43:26;5.00;;;1.85;;
78057;SDS011;67265;52.514;13.292;2023-03-24T17:45:56;2.30;;;1.60;;
78057;SDS011;67265;52.514;13.292;2023-03-24T17:48:24;5.25;;;1.83;;
78057;SDS011;67265;52.514;13.292;2023-03-24T17:50:51;4.13;;;2.13;;
78057;SDS011;67265;52.514;13.292;2023-03-24T17:53:18;4.15;;;1.98;;
78057;SDS011;67265;52.514;13.292;2023-03-24T17:55:51;5.43;;;1.90;;
78057;SDS011;67265;52.514;13.292;2023-03-24T17:58:19;5.57;;;1.63;;
78057;SDS011;67265;52.514;13.292;2023-03-24T18:00:45;5.63;;;2.72;;
78057;SDS011;67265;52.514;13.292;2023-03-24T18:03:13;6.90;;;1.80;;
78057;SDS011;67265;52.514;13.292;2023-03-24T18:05:41;2.92;;;1.77;;
78057;SDS011;67265;52.514;13.292;2023-03-24T18:08:10;5.97;;;2.28;;
78057;SDS011;67265;52.514;13.292;2023-03-24T18:10:37;4.22;;;1.73;;
78057;SDS011;67265;52.514;13.292;2023-03-24T18:13:04;4.57;;;1.80;;
78057;SDS011;67265;52.514;13.292;2023-03-24T18:15:32;6.10;;;1.75;;
78057;SDS011;67265;52.514;13.292;2023-03-24T18:17:59;4.45;;;2.10;;
78057;SDS011;67265;52.514;13.292;2023-03-24T18:20:26;3.10;;;2.10;;
78057;SDS011;67265;52.514;13.292;2023-03-24T18:22:53;6.13;;;2.25;;
78057;SDS011;67265;52.514;13.292;2023-03-24T18:25:20;5.95;;;2.45;;
78057;SDS011;67265;52.514;13.292;2023-03-24T18:27:47;7.18;;;2.90;;
78057;SDS011;67265;52.514;13.292;2023-03-24T18:30:13;3.50;;;2.95;;
78057;SDS011;67265;52.514;13.292;2023-03-24T18:32:42;3.97;;;2.15;;
78057;SDS011;67265;52.514;13.292;2023-03-24T18:35:10;4.30;;;2.10;;
78057;SDS011;67265;52.514;13.292;2023-03-24T18:37:41;5.68;;;2.33;;
78057;SDS011;67265;52.514;13.292;2023-03-24T18:43:03;5.60;;;2.20;;
78057;SDS011;67265;52.514;13.292;2023-03-24T18:46:31;3.50;;;2.53;;
78057;SDS011;67265;52.514;13.292;2023-03-24T18:48:58;2.83;;;2.00;;
78057;SDS011;67265;52.514;13.292;2023-03-24T18:55:07;3.10;;;1.77;;
78057;SDS011;67265;52.514;13.292;2023-03-24T18:57:43;2.63;;;2.13;;
78057;SDS011;67265;52.514;13.292;2023-03-24T19:00:16;4.05;;;1.65;;
78057;SDS011;67265;52.514;13.292;2023-03-24T19:02:48;4.07;;;2.17;;
78057;SDS011;67265;52.514;13.292;2023-03-24T19:05:17;3.08;;;1.88;;
78057;SDS011;67265;52.514;13.292;2023-03-24T19:07:47;2.92;;;2.63;;
78057;SDS011;67265;52.514;13.292;2023-03-24T19:12:48;3.78;;;2.22;;
78057;SDS011;67265;52.514;13.292;2023-03-24T19:15:24;4.18;;;2.97;;
78057;SDS011;67265;52.514;13.292;2023-03-24T19:17:52;5.05;;;2.38;;
78057;SDS011;67265;52.514;13.292;2023-03-24T19:20:33;7.38;;;2.25;;
78057;SDS011;67265;52.514;13.292;2023-03-24T19:23:21;5.25;;;2.10;;
78057;SDS011;67265;52.514;13.292;2023-03-24T19:25:49;8.45;;;2.50;;
78057;SDS011;67265;52.514;13.292;2023-03-24T19:30:47;4.68;;;2.90;;
78057;SDS011;67265;52.514;13.292;2023-03-24T19:33:15;4.65;;;2.55;;
78057;SDS011;67265;52.514;13.292;2023-03-24T19:35:42;3.50;;;2.55;;
78057;SDS011;67265;52.514;13.292;2023-03-24T19:38:12;5.07;;;1.98;;
78057;SDS011;67265;52.514;13.292;2023-03-24T19:40:39;5.85;;;2.40;;
78057;SDS011;67265;52.514;13.292;2023-03-24T19:43:10;5.90;;;2.65;;
78057;SDS011;67265;52.514;13.292;2023-03-24T19:45:36;7.15;;;2.90;;
78057;SDS011;67265;52.514;13.292;2023-03-24T19:48:08;3.78;;;2.30;;
78057;SDS011;67265;52.514;13.292;2023-03-24T19:50:35;6.55;;;3.00;;
78057;SDS011;67265;52.514;13.292;2023-03-24T19:53:02;3.42;;;2.40;;
78057;SDS011;67265;52.514;13.292;2023-03-24T19:55:29;6.10;;;2.55;;
78057;SDS011;67265;52.514;13.292;2023-03-24T19:57:56;3.90;;;2.22;;
78057;SDS011;67265;52.514;13.292;2023-03-24T20:00:24;4.55;;;1.92;;
78057;SDS011;67265;52.514;13.292;2023-03-24T20:02:51;3.85;;;2.03;;
78057;SDS011;67265;52.514;13.292;2023-03-24T20:05:18;4.05;;;2.10;;
78057;SDS011;67265;52.514;13.292;2023-03-24T20:07:44;2.38;;;1.50;;
78057;SDS011;67265;52.514;13.292;2023-03-24T20:10:11;2.80;;;1.20;;
78057;SDS011;67265;52.514;13.292;2023-03-24T20:12:38;2.42;;;1.55;;
78057;SDS011;67265;52.514;13.292;2023-03-24T20:15:05;2.38;;;1.30;;
78057;SDS011;67265;52.514;13.292;2023-03-24T20:17:32;1.85;;;1.30;;
78057;SDS011;67265;52.514;13.292;2023-03-24T20:20:03;1.65;;;0.95;;
78057;SDS011;67265;52.514;13.292;2023-03-24T20:22:32;2.38;;;1.05;;
78057;SDS011;67265;52.514;13.292;2023-03-24T20:24:59;3.67;;;1.70;;
78057;SDS011;67265;52.514;13.292;2023-03-24T20:27:26;1.50;;;0.90;;
78057;SDS011;67265;52.514;13.292;2023-03-24T20:29:52;3.17;;;1.23;;
78057;SDS011;67265;52.514;13.292;2023-03-24T20:32:19;7.80;;;1.30;;
78057;SDS011;67265;52.514;13.292;2023-03-24T20:34:46;2.47;;;1.00;;
78057;SDS011;67265;52.514;13.292;2023-03-24T20:37:12;2.92;;;1.30;;
78057;SDS011;67265;52.514;13.292;2023-03-24T20:39:39;2.75;;;1.08;;
78057;SDS011;67265;52.514;13.292;2023-03-24T20:42:09;2.45;;;1.00;;
78057;SDS011;67265;52.514;13.292;2023-03-24T20:44:36;4.50;;;1.60;;
78057;SDS011;67265;52.514;13.292;2023-03-24T20:47:03;2.20;;;1.10;;
78057;SDS011;67265;52.514;13.292;2023-03-24T20:49:30;2.20;;;1.05;;
78057;SDS011;67265;52.514;13.292;2023-03-24T20:51:57;3.47;;;1.88;;
78057;SDS011;67265;52.514;13.292;2023-03-24T20:54:26;2.95;;;1.35;;
78057;SDS011;67265;52.514;13.292;2023-03-24T20:56:53;3.88;;;1.30;;
78057;SDS011;67265;52.514;13.292;2023-03-24T20:59:20;2.95;;;1.58;;
78057;SDS011;67265;52.514;13.292;2023-03-24T21:01:47;3.38;;;1.98;;
78057;SDS011;67265;52.514;13.292;2023-03-24T21:04:15;3.70;;;1.20;;
78057;SDS011;67265;52.514;13.292;2023-03-24T21:06:43;1.67;;;1.40;;
78057;SDS011;67265;52.514;13.292;2023-03-24T21:09:10;1.63;;;1.10;;
78057;SDS011;67265;52.514;13.292;2023-03-24T21:11:37;3.22;;;1.30;;
78057;SDS011;67265;52.514;13.292;2023-03-24T21:14:03;2.25;;;1.10;;
78057;SDS011;67265;52.514;13.292;2023-03-24T21:16:30;2.47;;;1.33;;
78057;SDS011;67265;52.514;13.292;2023-03-24T21:18:59;2.78;;;1.48;;
78057;SDS011;67265;52.514;13.292;2023-03-24T21:21:27;2.90;;;1.60;;
78057;SDS011;67265;52.514;13.292;2023-03-24T21:23:54;4.75;;;1.95;;
78057;SDS011;67265;52.514;13.292;2023-03-24T21:26:22;3.22;;;1.08;;
78057;SDS011;67265;52.514;13.292;2023-03-24T21:28:50;2.13;;;1.23;;
78057;SDS011;67265;52.514;13.292;2023-03-24T21:31:22;2.28;;;1.45;;
78057;SDS011;67265;52.514;13.292;2023-03-24T21:33:49;3.92;;;1.27;;
78057;SDS011;67265;52.514;13.292;2023-03-24T21:36:16;2.40;;;1.50;;
78057;SDS011;67265;52.514;13.292;2023-03-24T21:38:43;4.50;;;1.38;;
78057;SDS011;67265;52.514;13.292;2023-03-24T21:41:10;3.10;;;1.38;;
78057;SDS011;67265;52.514;13.292;2023-03-24T21:43:37;3.00;;;1.30;;
78057;SDS011;67265;52.514;13.292;2023-03-24T21:46:05;4.35;;;1.90;;
78057;SDS011;67265;52.514;13.292;2023-03-24T21:48:39;2.92;;;1.60;;
78057;SDS011;67265;52.514;13.292;2023-03-24T21:51:17;2.50;;;2.05;;
78057;SDS011;67265;52.514;13.292;2023-03-24T21:53:45;2.67;;;1.40;;
78057;SDS011;67265;52.514;13.292;2023-03-24T21:56:12;2.97;;;1.92;;
78057;SDS011;67265;52.514;13.292;2023-03-24T21:58:39;2.13;;;1.42;;
78057;SDS011;67265;52.514;13.292;2023-03-24T22:01:06;1.80;;;1.40;;
78057;SDS011;67265;52.514;13.292;2023-03-24T22:03:34;2.97;;;1.92;;
78057;SDS011;67265;52.514;13.292;2023-03-24T22:06:03;1.58;;;1.20;;
78057;SDS011;67265;52.514;13.292;2023-03-24T22:08:30;5.47;;;1.83;;
78057;SDS011;67265;52.514;13.292;2023-03-24T22:10:57;4.63;;;1.73;;
78057;SDS011;67265;52.514;13.292;2023-03-24T22:13:26;3.28;;;1.45;;
78057;SDS011;67265;52.514;13.292;2023-03-24T22:15:54;2.20;;;1.52;;
78057;SDS011;67265;52.514;13.292;2023-03-24T22:18:22;2.63;;;1.67;;
78057;SDS011;67265;52.514;13.292;2023-03-24T22:21:02;4.97;;;2.08;;
78057;SDS011;67265;52.514;13.292;2023-03-24T22:23:34;5.38;;;2.08;;
78057;SDS011;67265;52.514;13.292;2023-03-24T22:26:04;4.72;;;2.13;;
78057;SDS011;67265;52.514;13.292;2023-03-24T22:28:36;3.53;;;2.03;;
78057;SDS011;67265;52.514;13.292;2023-03-24T22:31:06;3.05;;;2.38;;
78057;SDS011;67265;52.514;13.292;2023-03-24T22:33:35;4.35;;;1.92;;
78057;SDS011;67265;52.514;13.292;2023-03-24T22:36:02;4.57;;;2.25;;
78057;SDS011;67265;52.514;13.292;2023-03-24T22:38:30;4.05;;;2.55;;
78057;SDS011;67265;52.514;13.292;2023-03-24T22:40:57;6.13;;;2.40;;
78057;SDS011;67265;52.514;13.292;2023-03-24T22:43:25;5.65;;;2.55;;
78057;SDS011;67265;52.514;13.292;2023-03-24T22:45:52;5.43;;;1.90;;
78057;SDS011;67265;52.514;13.292;2023-03-24T22:48:19;4.53;;;1.90;;
78057;SDS011;67265;52.514;13.292;2023-03-24T22:50:47;4.07;;;2.60;;
78057;SDS011;67265;52.514;13.292;2023-03-24T22:53:14;3.78;;;2.20;;